Time;durP1;ratioP1;P1;durP2;ratioP2;P2;SDS_P1;SDS_P2;PMS_P1;PMS_P2;Temp;Humidity;BMP_temperature;BMP_pressure;BME280_temperature;BME280_humidity;BME280_pressure;Samples;Min_cycle;Max_cycle;Signal;HPM_P1;HPM_P2
2023/09/29 00:01:47;;;;;;;9.75;4.90;;;;;;;;;;5001255;28;20033;-92
2023/09/29 00:04:13;;;;;;;15.07;4.88;;;;;;;;;;5017793;28;20322;-90
2023/09/29 00:06:38;;;;;;;14.10;4.63;;;;;;;;;;5017338;28;20081;-91
2023/09/29 00:09:06;;;;;;;11.68;4.55;;;;;;;;;;5016805;28;20034;-91
2023/09/29 00:11:32;;;;;;;7.63;4.47;;;;;;;;;;5016848;28;20528;-92
2023/09/29 00:14:00;;;;;;;16.75;4.88;;;;;;;;;;5035543;28;20045;-91
2023/09/29 00:16:28;;;;;;;10.85;4.55;;;;;;;;;;5020780;28;20101;-91
2023/09/29 00:18:56;;;;;;;8.90;4.40;;;;;;;;;;5022539;28;20025;-91
2023/09/29 00:21:23;;;;;;;12.93;4.40;;;;;;;;;;5020266;28;20354;-90
2023/09/29 00:23:51;;;;;;;14.10;4.50;;;;;;;;;;5024493;28;20052;-91
2023/09/29 00:26:17;;;;;;;15.55;4.50;;;;;;;;;;5048800;28;20020;-92
2023/09/29 00:28:45;;;;;;;9.40;4.65;;;;;;;;;;5023777;28;20029;-90
2023/09/29 00:31:32;;;;;;;12.90;5.40;;;;;;;;;;5038851;28;20021;-90
2023/09/29 00:34:00;;;;;;;17.20;5.15;;;;;;;;;;5039462;28;20013;-90
2023/09/29 00:36:26;;;;;;;12.55;5.20;;;;;;;;;;5039572;28;20004;-90
2023/09/29 00:41:56;;;;;;;14.18;5.20;;;;;;;;;;5044233;28;20056;-91
2023/09/29 00:44:24;;;;;;;8.60;4.93;;;;;;;;;;5027048;28;20021;-91
2023/09/29 00:46:51;;;;;;;14.73;5.75;;;;;;;;;;5029650;28;20025;-90
2023/09/29 00:49:18;;;;;;;13.13;5.72;;;;;;;;;;5026747;28;20066;-90
2023/09/29 00:51:48;;;;;;;14.70;6.05;;;;;;;;;;5022400;28;20429;-90
2023/09/29 00:54:23;;;;;;;12.02;5.43;;;;;;;;;;5017454;28;20339;-90
2023/09/29 00:56:58;;;;;;;13.98;5.78;;;;;;;;;;5035214;28;20022;-91
2023/09/29 00:59:27;;;;;;;11.80;5.13;;;;;;;;;;5034702;28;20017;-90
2023/09/29 01:01:53;;;;;;;10.15;4.93;;;;;;;;;;5016323;28;20026;-91
2023/09/29 01:04:21;;;;;;;12.43;6.60;;;;;;;;;;5034722;28;20408;-91
2023/09/29 01:06:49;;;;;;;10.40;5.05;;;;;;;;;;5016939;28;20028;-90
2023/09/29 01:09:17;;;;;;;;;;;;;;;;;;5020232;28;20096;-90
2023/09/29 01:11:45;;;;;;;16.05;4.72;;;;;;;;;;5034498;28;20004;-90
2023/09/29 01:14:14;;;;;;;12.55;6.28;;;;;;;;;;5036773;28;20319;-91
2023/09/29 01:16:50;;;;;;;13.25;5.50;;;;;;;;;;5016582;28;20211;-91
2023/09/29 01:19:25;;;;;;;12.90;5.35;;;;;;;;;;5016829;28;20021;-92
2023/09/29 01:21:53;;;;;;;10.05;5.15;;;;;;;;;;5015864;28;20021;-91
2023/09/29 01:24:19;;;;;;;15.73;5.15;;;;;;;;;;5016639;28;20323;-90
2023/09/29 01:26:49;;;;;;;12.60;5.68;;;;;;;;;;5016244;28;20391;-89
2023/09/29 01:29:23;;;;;;;12.02;5.35;;;;;;;;;;5016790;28;20387;-91
2023/09/29 01:31:58;;;;;;;;;;;;;;;;;;;;;
2023/09/29 01:34:24;;;;;;;13.90;5.70;;;;;;;;;;5033914;28;20022;-90
2023/09/29 01:36:49;;;;;;;15.73;5.95;;;;;;;;;;5017882;28;20041;-91
2023/09/29 01:39:34;;;;;;;;;;;;;;;;;;;;;
2023/09/29 01:42:00;;;;;;;20.20;5.18;;;;;;;;;;5037305;28;20104;-89
2023/09/29 01:44:27;;;;;;;13.00;5.53;;;;;;;;;;5020482;28;20049;-90
2023/09/29 01:46:53;;;;;;;10.43;5.57;;;;;;;;;;5020968;28;20029;-91
2023/09/29 01:49:18;;;;;;;11.25;5.47;;;;;;;;;;5033568;28;20021;-90
2023/09/29 01:51:44;;;;;;;11.70;5.88;;;;;;;;;;5037864;28;20025;-91
2023/09/29 01:54:12;;;;;;;11.63;5.43;;;;;;;;;;5037564;28;20005;-90
2023/09/29 01:56:38;;;;;;;12.90;5.95;;;;;;;;;;5037698;28;20025;-90
2023/09/29 01:59:04;;;;;;;21.55;5.68;;;;;;;;;;5037639;28;20374;-90
2023/09/29 02:01:31;;;;;;;14.23;6.07;;;;;;;;;;5049843;28;20025;-90
2023/09/29 02:03:57;;;;;;;11.82;5.57;;;;;;;;;;5016894;28;20060;-91
2023/09/29 02:06:27;;;;;;;15.65;5.80;;;;;;;;;;5016821;28;20423;-91
2023/09/29 02:08:52;;;;;;;13.40;5.57;;;;;;;;;;5026471;28;20036;-90
2023/09/29 02:11:25;;;;;;;13.50;5.97;;;;;;;;;;5032303;28;20018;-90
2023/09/29 02:13:50;;;;;;;15.85;5.93;;;;;;;;;;5027366;28;20028;-90
2023/09/29 02:16:16;;;;;;;14.60;5.68;;;;;;;;;;5028890;28;20005;-90
2023/09/29 02:18:41;;;;;;;15.10;5.53;;;;;;;;;;5020835;28;20037;-91
2023/09/29 02:21:07;;;;;;;10.15;5.47;;;;;;;;;;5016002;28;20021;-91
2023/09/29 02:23:33;;;;;;;18.88;5.65;;;;;;;;;;5033284;28;20022;-91
2023/09/29 02:26:00;;;;;;;16.48;5.68;;;;;;;;;;5034772;28;20013;-91
2023/09/29 02:28:30;;;;;;;15.35;5.72;;;;;;;;;;5036465;28;20163;-89
2023/09/29 02:31:01;;;;;;;10.98;5.05;;;;;;;;;;5000053;28;20454;-90
2023/09/29 02:33:56;;;;;;;;;;;;;;;;;;;;;
2023/09/29 02:36:38;;;;;;;;;;;;;;;;;;;;;
2023/09/29 02:39:08;;;;;;;13.73;5.60;;;;;;;;;;4968093;29;20085;-90
2023/09/29 02:41:39;;;;;;;18.42;5.55;;;;;;;;;;4973007;29;20027;-90
2023/09/29 02:44:44;;;;;;;;;;;;;;;;;;;;;
2023/09/29 02:50:24;;;;;;;14.02;5.25;;;;;;;;;;4915211;29;20155;-91
2023/09/29 02:53:10;;;;;;;16.80;5.53;;;;;;;;;;4902845;29;20044;-91
2023/09/29 03:05:14;;;;;;;15.45;5.30;;;;;;;;;;4897767;29;20043;-91
2023/09/29 03:07:41;;;;;;;9.10;5.03;;;;;;;;;;4884283;29;20100;-90
2023/09/29 03:10:26;;;;;;;;;;;;;;;;;;;;;
2023/09/29 03:12:53;;;;;;;15.82;5.35;;;;;;;;;;4907021;29;20210;-89
2023/09/29 03:15:21;;;;;;;12.90;5.18;;;;;;;;;;4901372;29;20115;-90
2023/09/29 03:17:49;;;;;;;14.77;5.32;;;;;;;;;;4917725;29;20024;-90
2023/09/29 03:20:21;;;;;;;11.68;5.40;;;;;;;;;;4934844;29;20042;-91
2023/09/29 03:22:48;;;;;;;10.77;5.93;;;;;;;;;;4936447;29;20057;-88
2023/09/29 03:25:16;;;;;;;13.10;5.75;;;;;;;;;;4927850;29;20031;-89
2023/09/29 03:33:40;;;;;;;13.82;5.70;;;;;;;;;;4899155;29;20066;-91
2023/09/29 03:36:09;;;;;;;8.35;5.22;;;;;;;;;;4899207;29;20115;-91
2023/09/29 03:39:00;;;;;;;9.55;5.80;;;;;;;;;;4895334;29;20101;-88
2023/09/29 03:41:59;;;;;;;;;;;;;;;;;;;;;
2023/09/29 03:44:55;;;;;;;12.10;5.93;;;;;;;;;;4887689;29;20154;-91
2023/09/29 03:47:37;;;;;;;12.63;6.00;;;;;;;;;;4884709;29;20051;-91
2023/09/29 03:50:11;;;;;;;11.68;6.05;;;;;;;;;;4878380;29;20037;-92
2023/09/29 03:56:01;;;;;;;12.00;6.18;;;;;;;;;;4857712;29;20185;-91
2023/09/29 04:02:02;;;;;;;13.63;7.10;;;;;;;;;;4848201;29;20391;-93
2023/09/29 04:14:22;;;;;;;11.57;5.65;;;;;;;;;;4879169;29;20056;-91
2023/09/29 04:26:15;;;;;;;17.00;6.85;;;;;;;;;;4854983;29;20045;-91
2023/09/29 04:28:57;;;;;;;18.75;8.60;;;;;;;;;;4853197;29;20042;-92
2023/09/29 04:31:49;;;;;;;;;;;;;;;;;;;;;
2023/09/29 04:34:52;;;;;;;13.60;7.78;;;;;;;;;;4821371;29;20089;-91
2023/09/29 04:39:42;;;;;;;12.45;6.93;;;;;;;;;;5048965;23;20128;-71
2023/09/29 04:42:07;;;;;;;13.50;6.60;;;;;;;;;;5030098;28;20511;-71
2023/09/29 04:44:37;;;;;;;16.58;6.72;;;;;;;;;;5015115;28;20100;-73
2023/09/29 04:47:02;;;;;;;17.83;7.30;;;;;;;;;;5029927;28;20101;-72
2023/09/29 04:49:27;;;;;;;15.52;7.38;;;;;;;;;;5028044;28;20113;-71
2023/09/29 04:51:52;;;;;;;19.58;7.13;;;;;;;;;;5026621;28;20101;-72
2023/09/29 04:54:18;;;;;;;11.52;7.35;;;;;;;;;;5038844;23;20128;-69
2023/09/29 04:56:43;;;;;;;17.85;7.03;;;;;;;;;;5028356;28;20025;-69
2023/09/29 04:59:08;;;;;;;23.63;8.02;;;;;;;;;;5028301;28;20448;-69
2023/09/29 05:01:35;;;;;;;13.25;6.93;;;;;;;;;;5021562;28;20029;-69
2023/09/29 05:04:00;;;;;;;11.90;6.80;;;;;;;;;;5028096;28;20457;-68
2023/09/29 05:06:25;;;;;;;16.75;6.60;;;;;;;;;;5028561;28;20075;-67
2023/09/29 05:08:51;;;;;;;14.50;6.90;;;;;;;;;;5028737;28;20025;-70
2023/09/29 05:11:26;;;;;;;14.45;7.28;;;;;;;;;;5027636;28;20113;-69
2023/09/29 05:13:53;;;;;;;18.77;6.88;;;;;;;;;;5027410;28;20014;-69
2023/09/29 05:16:18;;;;;;;14.48;6.78;;;;;;;;;;5028450;28;20017;-69
2023/09/29 05:18:44;;;;;;;13.63;7.22;;;;;;;;;;5027412;28;20041;-68
2023/09/29 05:21:10;;;;;;;16.52;7.07;;;;;;;;;;5027579;28;20260;-69
2023/09/29 05:23:35;;;;;;;14.43;6.88;;;;;;;;;;5028410;28;20064;-68
2023/09/29 05:26:04;;;;;;;12.60;6.90;;;;;;;;;;5026332;28;20033;-68
2023/09/29 05:28:29;;;;;;;12.18;6.78;;;;;;;;;;5024032;28;20014;-70
2023/09/29 05:30:55;;;;;;;19.30;7.32;;;;;;;;;;5023410;28;20021;-71
2023/09/29 05:33:20;;;;;;;12.52;5.95;;;;;;;;;;5031041;28;20025;-70
2023/09/29 05:35:48;;;;;;;19.48;7.65;;;;;;;;;;5010298;28;20491;-70
2023/09/29 05:38:13;;;;;;;13.30;6.82;;;;;;;;;;5024351;28;20036;-69
2023/09/29 05:40:39;;;;;;;18.27;6.75;;;;;;;;;;5022214;28;20025;-70
2023/09/29 05:43:07;;;;;;;14.40;6.90;;;;;;;;;;5024660;28;20112;-69
2023/09/29 05:45:32;;;;;;;16.30;6.35;;;;;;;;;;5028569;28;20195;-70
2023/09/29 05:47:57;;;;;;;20.95;6.50;;;;;;;;;;5025541;28;20069;-68
2023/09/29 05:50:22;;;;;;;11.43;6.10;;;;;;;;;;5026904;28;20025;-69
2023/09/29 05:52:48;;;;;;;14.80;6.07;;;;;;;;;;5018740;28;20026;-71
2023/09/29 05:55:13;;;;;;;19.25;6.80;;;;;;;;;;5024202;28;20048;-69
2023/09/29 05:57:38;;;;;;;14.00;5.38;;;;;;;;;;5026462;28;20105;-70
2023/09/29 06:00:04;;;;;;;14.80;6.07;;;;;;;;;;5017577;28;20037;-71
2023/09/29 06:02:30;;;;;;;13.68;6.50;;;;;;;;;;5028004;28;20041;-69
2023/09/29 06:04:55;;;;;;;21.75;6.88;;;;;;;;;;5027764;28;20052;-69
2023/09/29 06:07:20;;;;;;;13.55;6.55;;;;;;;;;;5027176;28;20018;-69
2023/09/29 06:09:46;;;;;;;23.75;5.85;;;;;;;;;;5022361;28;20082;-72
2023/09/29 06:12:11;;;;;;;19.20;7.43;;;;;;;;;;5019514;28;20025;-71
2023/09/29 06:14:37;;;;;;;17.52;6.28;;;;;;;;;;5020919;28;20037;-71
2023/09/29 06:17:02;;;;;;;16.35;6.20;;;;;;;;;;5025954;28;20089;-68
2023/09/29 06:19:27;;;;;;;19.25;6.43;;;;;;;;;;5026275;28;20080;-70
2023/09/29 06:21:53;;;;;;;18.60;5.72;;;;;;;;;;5024142;28;20436;-69
2023/09/29 06:24:18;;;;;;;20.83;6.22;;;;;;;;;;5026099;28;20025;-71
2023/09/29 06:26:43;;;;;;;28.15;6.53;;;;;;;;;;5022286;28;20291;-70
2023/09/29 06:29:08;;;;;;;17.35;7.35;;;;;;;;;;5027270;28;20074;-68
2023/09/29 06:31:34;;;;;;;12.07;5.25;;;;;;;;;;5021980;28;20055;-70
2023/09/29 06:33:59;;;;;;;17.92;6.03;;;;;;;;;;5029413;28;20013;-66
2023/09/29 06:36:24;;;;;;;10.38;5.22;;;;;;;;;;5026644;28;20021;-71
2023/09/29 06:38:49;;;;;;;10.45;5.90;;;;;;;;;;5019848;28;20021;-69
2023/09/29 06:41:15;;;;;;;13.07;5.43;;;;;;;;;;5024431;28;20048;-70
2023/09/29 06:43:41;;;;;;;15.40;5.40;;;;;;;;;;5023668;28;20109;-70
2023/09/29 06:46:06;;;;;;;13.93;5.65;;;;;;;;;;5028795;28;20013;-71
2023/09/29 06:48:33;;;;;;;12.30;5.65;;;;;;;;;;5023705;28;20259;-71
2023/09/29 06:50:59;;;;;;;12.68;5.93;;;;;;;;;;5022608;28;20052;-67
2023/09/29 06:53:24;;;;;;;13.10;4.75;;;;;;;;;;5024493;28;20040;-69
2023/09/29 06:55:49;;;;;;;20.23;5.40;;;;;;;;;;5021030;28;20083;-70
2023/09/29 06:58:15;;;;;;;23.15;5.88;;;;;;;;;;5024092;28;20087;-73
2023/09/29 07:00:40;;;;;;;17.60;5.78;;;;;;;;;;5019887;28;20021;-69
2023/09/29 07:03:11;;;;;;;13.57;6.13;;;;;;;;;;5026023;28;20025;-70
2023/09/29 07:05:36;;;;;;;12.65;5.30;;;;;;;;;;5019393;28;20018;-70
2023/09/29 07:08:02;;;;;;;13.88;6.03;;;;;;;;;;5021076;28;20388;-69
2023/09/29 07:10:27;;;;;;;13.57;5.40;;;;;;;;;;5008547;28;20452;-69
2023/09/29 07:12:52;;;;;;;13.75;5.80;;;;;;;;;;5008801;28;20048;-70
2023/09/29 07:15:17;;;;;;;16.90;6.40;;;;;;;;;;5022718;28;20026;-68
2023/09/29 07:17:43;;;;;;;17.00;5.30;;;;;;;;;;5020086;28;20013;-69
2023/09/29 07:20:08;;;;;;;14.10;5.03;;;;;;;;;;5022201;28;20102;-67
2023/09/29 07:22:33;;;;;;;10.80;5.07;;;;;;;;;;5022713;28;20022;-70
2023/09/29 07:24:59;;;;;;;13.25;5.28;;;;;;;;;;5026733;28;20152;-68
2023/09/29 07:27:24;;;;;;;13.73;5.28;;;;;;;;;;5026891;28;20044;-71
2023/09/29 07:29:49;;;;;;;13.27;5.80;;;;;;;;;;5025506;28;20021;-69
2023/09/29 07:32:15;;;;;;;13.75;4.93;;;;;;;;;;4995609;28;20018;-70
2023/09/29 07:34:40;;;;;;;15.60;4.38;;;;;;;;;;5013381;28;20169;-69
2023/09/29 07:37:06;;;;;;;14.27;5.10;;;;;;;;;;5013852;28;20670;-71
2023/09/29 07:39:31;;;;;;;11.20;4.60;;;;;;;;;;5014203;28;20029;-70
2023/09/29 07:41:56;;;;;;;9.55;4.50;;;;;;;;;;5014651;28;20210;-68
2023/09/29 07:44:21;;;;;;;12.38;4.80;;;;;;;;;;5014738;28;21425;-71
2023/09/29 07:46:52;;;;;;;9.95;4.43;;;;;;;;;;5015595;28;20021;-70
2023/09/29 07:49:18;;;;;;;16.73;5.20;;;;;;;;;;5014350;28;20040;-70
2023/09/29 07:51:44;;;;;;;10.30;4.75;;;;;;;;;;5014921;28;20475;-70
2023/09/29 07:54:09;;;;;;;10.88;4.28;;;;;;;;;;5015589;28;20040;-71
2023/09/29 07:56:34;;;;;;;8.30;4.60;;;;;;;;;;5017254;28;20417;-71
2023/09/29 07:58:59;;;;;;;13.23;4.85;;;;;;;;;;5016570;28;20025;-68
2023/09/29 08:01:25;;;;;;;14.20;4.28;;;;;;;;;;5018317;28;20132;-70
2023/09/29 08:03:50;;;;;;;11.38;4.55;;;;;;;;;;5017633;28;20273;-68
2023/09/29 08:06:16;;;;;;;19.60;4.50;;;;;;;;;;5017210;28;20034;-70
2023/09/29 08:08:41;;;;;;;10.85;4.30;;;;;;;;;;5019566;28;20014;-70
2023/09/29 08:11:07;;;;;;;11.57;4.68;;;;;;;;;;5016524;28;20024;-68
2023/09/29 08:13:32;;;;;;;6.85;4.22;;;;;;;;;;5016988;28;20030;-72
2023/09/29 08:15:57;;;;;;;10.55;4.07;;;;;;;;;;5014322;28;20132;-70
2023/09/29 08:18:23;;;;;;;20.52;5.25;;;;;;;;;;5017099;28;20133;-70
2023/09/29 08:20:53;;;;;;;12.48;5.13;;;;;;;;;;5016868;28;20025;-70
2023/09/29 08:23:18;;;;;;;19.33;5.50;;;;;;;;;;5016240;28;20496;-72
2023/09/29 08:25:43;;;;;;;16.08;5.70;;;;;;;;;;5017342;28;20029;-72
2023/09/29 08:28:08;;;;;;;11.27;4.28;;;;;;;;;;5018060;28;20400;-71
2023/09/29 08:30:34;;;;;;;12.57;4.28;;;;;;;;;;5016717;28;20519;-71
2023/09/29 08:32:59;;;;;;;9.57;4.20;;;;;;;;;;5016987;28;20779;-69
2023/09/29 08:35:27;;;;;;;13.10;3.35;;;;;;;;;;5015661;28;21596;-70
2023/09/29 08:37:52;;;;;;;13.15;4.63;;;;;;;;;;5016436;28;20109;-71
2023/09/29 08:40:17;;;;;;;9.30;4.13;;;;;;;;;;5016793;28;20116;-72
2023/09/29 08:42:49;;;;;;;15.60;4.40;;;;;;;;;;5016474;28;20451;-70
2023/09/29 08:45:16;;;;;;;9.50;4.18;;;;;;;;;;5017043;28;20026;-69
2023/09/29 08:47:41;;;;;;;17.27;4.13;;;;;;;;;;5017774;28;20021;-71
2023/09/29 08:50:08;;;;;;;9.70;4.35;;;;;;;;;;5019732;28;20087;-68
2023/09/29 08:52:35;;;;;;;12.57;4.35;;;;;;;;;;5027051;28;20442;-70
2023/09/29 08:55:01;;;;;;;11.90;3.90;;;;;;;;;;5022703;28;20033;-70
2023/09/29 08:57:27;;;;;;;12.10;4.70;;;;;;;;;;5027430;28;20021;-71
2023/09/29 08:59:53;;;;;;;15.80;3.80;;;;;;;;;;5008707;28;20017;-70
2023/09/29 09:02:19;;;;;;;14.20;4.50;;;;;;;;;;5028129;28;20404;-68
2023/09/29 09:04:44;;;;;;;12.63;4.07;;;;;;;;;;5026177;28;20554;-70
2023/09/29 09:07:09;;;;;;;9.15;4.45;;;;;;;;;;5027785;28;20467;-70
2023/09/29 09:09:36;;;;;;;10.60;4.50;;;;;;;;;;5021368;28;20097;-71
2023/09/29 09:12:02;;;;;;;16.75;4.15;;;;;;;;;;5028477;28;20172;-71
2023/09/29 09:14:38;;;;;;;8.50;3.40;;;;;;;;;;5026185;28;20067;-68
2023/09/29 09:17:04;;;;;;;10.00;3.85;;;;;;;;;;5022057;28;20104;-70
2023/09/29 09:19:29;;;;;;;11.45;3.63;;;;;;;;;;5023886;28;20025;-71
2023/09/29 09:21:54;;;;;;;6.85;3.17;;;;;;;;;;5022250;28;20084;-70
2023/09/29 09:24:21;;;;;;;16.83;3.92;;;;;;;;;;5023449;28;20072;-71
2023/09/29 09:26:46;;;;;;;7.03;3.42;;;;;;;;;;5028260;28;20009;-72
2023/09/29 09:29:15;;;;;;;10.32;3.78;;;;;;;;;;5022373;28;20018;-71
2023/09/29 09:31:52;;;;;;;7.35;3.22;;;;;;;;;;5025605;28;20021;-71
2023/09/29 09:34:18;;;;;;;6.75;3.40;;;;;;;;;;5018618;28;20022;-73
2023/09/29 09:36:53;;;;;;;9.87;3.63;;;;;;;;;;5025050;28;20044;-70
2023/09/29 09:39:22;;;;;;;10.80;3.25;;;;;;;;;;5027516;28;20396;-70
2023/09/29 09:41:47;;;;;;;;;;;;;;;;;;5028424;28;20475;-69
2023/09/29 09:44:12;;;;;;;10.30;3.60;;;;;;;;;;5030992;28;20376;-70
2023/09/29 09:46:39;;;;;;;8.15;3.92;;;;;;;;;;5027190;28;20048;-71
2023/09/29 09:49:10;;;;;;;19.10;3.90;;;;;;;;;;5027661;28;20086;-69
2023/09/29 09:51:36;;;;;;;22.95;3.88;;;;;;;;;;5027833;28;20032;-71
2023/09/29 09:54:03;;;;;;;10.00;3.72;;;;;;;;;;5028074;28;20029;-69
2023/09/29 09:56:36;;;;;;;16.30;3.67;;;;;;;;;;5017334;28;20045;-71
2023/09/29 09:59:02;;;;;;;11.43;3.80;;;;;;;;;;5022642;28;20122;-70
2023/09/29 10:01:28;;;;;;;7.47;3.75;;;;;;;;;;5008740;28;20022;-72
2023/09/29 10:03:56;;;;;;;9.27;3.70;;;;;;;;;;5020920;28;20014;-68
2023/09/29 10:06:21;;;;;;;13.48;3.78;;;;;;;;;;5027112;28;20041;-70
2023/09/29 10:08:57;;;;;;;21.13;4.15;;;;;;;;;;5027404;28;20018;-70
2023/09/29 10:11:24;;;;;;;8.73;3.47;;;;;;;;;;5026820;28;20488;-72
2023/09/29 10:13:59;;;;;;;27.73;4.38;;;;;;;;;;5027215;28;20100;-71
2023/09/29 10:16:25;;;;;;;12.20;3.75;;;;;;;;;;5020675;28;20536;-72
2023/09/29 10:18:58;;;;;;;9.48;3.83;;;;;;;;;;5026781;28;20583;-72
2023/09/29 10:21:25;;;;;;;9.55;3.60;;;;;;;;;;5027836;28;20212;-73
2023/09/29 10:23:50;;;;;;;11.73;3.38;;;;;;;;;;5026560;28;20059;-72
2023/09/29 10:26:16;;;;;;;8.10;3.35;;;;;;;;;;5026771;28;20134;-71
2023/09/29 10:28:45;;;;;;;12.60;3.50;;;;;;;;;;5023350;28;20485;-72
2023/09/29 10:31:14;;;;;;;10.27;3.40;;;;;;;;;;5027293;28;20326;-72
2023/09/29 10:33:53;;;;;;;6.88;3.83;;;;;;;;;;5017550;28;20578;-69
2023/09/29 10:36:23;;;;;;;8.77;3.85;;;;;;;;;;5025170;28;20083;-71
2023/09/29 10:38:48;;;;;;;8.90;3.83;;;;;;;;;;5023464;28;20047;-72
2023/09/29 10:41:15;;;;;;;9.50;3.30;;;;;;;;;;5026342;28;20052;-71
2023/09/29 10:43:42;;;;;;;10.32;3.40;;;;;;;;;;5019801;28;20017;-68
2023/09/29 10:46:10;;;;;;;10.15;3.30;;;;;;;;;;5029626;28;20040;-70
2023/09/29 10:48:49;;;;;;;7.90;3.28;;;;;;;;;;5011621;28;20101;-72
2023/09/29 10:51:14;;;;;;;;;;;;;;;;;;5027530;28;20019;-72
2023/09/29 10:53:39;;;;;;;5.75;3.28;;;;;;;;;;5028017;28;20003;-71
2023/09/29 10:56:04;;;;;;;11.55;3.35;;;;;;;;;;5027780;28;20060;-69
2023/09/29 10:58:36;;;;;;;9.68;3.08;;;;;;;;;;5022500;28;20388;-72
2023/09/29 11:01:01;;;;;;;8.32;3.65;;;;;;;;;;5019486;28;20017;-69
2023/09/29 11:03:27;;;;;;;8.05;3.22;;;;;;;;;;5026390;28;20092;-71
2023/09/29 11:05:54;;;;;;;9.05;3.55;;;;;;;;;;5025582;28;20097;-69
2023/09/29 11:08:20;;;;;;;7.60;3.42;;;;;;;;;;5026852;28;20021;-70
2023/09/29 11:10:57;;;;;;;13.23;3.95;;;;;;;;;;5026219;28;20037;-70
2023/09/29 11:13:23;;;;;;;13.02;3.60;;;;;;;;;;5017600;28;20521;-72
2023/09/29 11:15:48;;;;;;;13.13;3.55;;;;;;;;;;5009449;28;20080;-71
2023/09/29 11:18:24;;;;;;;12.20;3.67;;;;;;;;;;5025873;28;20052;-69
2023/09/29 11:20:55;;;;;;;8.45;3.60;;;;;;;;;;5022369;28;20013;-70
2023/09/29 11:23:20;;;;;;;8.68;3.10;;;;;;;;;;5026378;28;20030;-70
2023/09/29 11:25:49;;;;;;;11.32;3.65;;;;;;;;;;5021568;28;20113;-68
2023/09/29 11:28:15;;;;;;;14.63;3.47;;;;;;;;;;5030916;28;20013;-70
2023/09/29 11:30:41;;;;;;;20.50;6.43;;;;;;;;;;5024889;28;20453;-72
2023/09/29 11:33:09;;;;;;;14.75;4.30;;;;;;;;;;5030599;28;20099;-70
2023/09/29 11:35:36;;;;;;;11.95;4.28;;;;;;;;;;5022891;28;20172;-70
2023/09/29 11:38:01;;;;;;;8.23;2.65;;;;;;;;;;5028268;28;20071;-71
2023/09/29 11:40:26;;;;;;;10.13;3.00;;;;;;;;;;5029981;28;20434;-70
2023/09/29 11:42:52;;;;;;;13.90;3.03;;;;;;;;;;5030433;28;20021;-70
2023/09/29 11:45:17;;;;;;;10.38;4.05;;;;;;;;;;5032792;28;20493;-70
2023/09/29 11:47:42;;;;;;;9.13;3.22;;;;;;;;;;5030376;28;20532;-71
2023/09/29 11:50:08;;;;;;;9.25;2.85;;;;;;;;;;5024467;28;20533;-69
2023/09/29 11:52:34;;;;;;;15.10;3.30;;;;;;;;;;5029698;28;20465;-72
2023/09/29 11:54:59;;;;;;;7.93;3.47;;;;;;;;;;5028875;28;20112;-70
2023/09/29 11:57:25;;;;;;;14.02;2.92;;;;;;;;;;5029734;28;20071;-68
2023/09/29 11:59:50;;;;;;;19.13;3.45;;;;;;;;;;5027822;28;20101;-71
2023/09/29 12:02:15;;;;;;;13.23;3.35;;;;;;;;;;5027156;28;20030;-70
2023/09/29 12:04:40;;;;;;;6.93;2.90;;;;;;;;;;5022692;28;20028;-71
2023/09/29 12:07:06;;;;;;;11.53;2.90;;;;;;;;;;5026182;28;20061;-72
2023/09/29 12:09:31;;;;;;;14.52;3.30;;;;;;;;;;5021577;28;20627;-70
2023/09/29 12:12:00;;;;;;;13.38;4.25;;;;;;;;;;5030366;28;20021;-72
2023/09/29 12:14:26;;;;;;;8.85;3.20;;;;;;;;;;5018388;28;20598;-69
2023/09/29 12:16:53;;;;;;;13.63;3.22;;;;;;;;;;5029028;28;20030;-70
2023/09/29 12:19:20;;;;;;;6.90;2.92;;;;;;;;;;5029886;28;20475;-69
2023/09/29 12:21:45;;;;;;;7.65;2.70;;;;;;;;;;5031148;28;20029;-69
2023/09/29 12:24:11;;;;;;;12.80;3.10;;;;;;;;;;5023360;28;20096;-71
2023/09/29 12:26:36;;;;;;;9.05;2.72;;;;;;;;;;5028623;28;20017;-71
2023/09/29 12:29:05;;;;;;;8.67;2.93;;;;;;;;;;5024863;28;20030;-72
2023/09/29 12:31:30;;;;;;;7.72;2.55;;;;;;;;;;5022863;28;20273;-71
2023/09/29 12:33:56;;;;;;;13.20;2.88;;;;;;;;;;5024557;28;20454;-70
2023/09/29 12:36:22;;;;;;;19.13;2.97;;;;;;;;;;5026290;28;20017;-72
2023/09/29 12:38:47;;;;;;;11.10;3.15;;;;;;;;;;5027412;28;20085;-72
2023/09/29 12:41:13;;;;;;;7.15;3.15;;;;;;;;;;5030332;28;20057;-70
2023/09/29 12:43:38;;;;;;;10.95;2.47;;;;;;;;;;5029461;28;20022;-72
2023/09/29 12:46:04;;;;;;;24.27;3.73;;;;;;;;;;5011308;28;20101;-70
2023/09/29 12:48:30;;;;;;;9.70;3.50;;;;;;;;;;5004177;28;20251;-70
2023/09/29 12:50:55;;;;;;;18.73;2.72;;;;;;;;;;5029178;28;20028;-68
2023/09/29 12:53:20;;;;;;;8.83;2.70;;;;;;;;;;5031793;28;20025;-71
2023/09/29 12:55:45;;;;;;;12.43;2.90;;;;;;;;;;5028221;28;20253;-70
2023/09/29 12:58:11;;;;;;;7.32;2.90;;;;;;;;;;5028121;28;20857;-70
2023/09/29 13:00:36;;;;;;;15.77;2.73;;;;;;;;;;5018919;28;20021;-72
2023/09/29 13:03:05;;;;;;;9.35;3.03;;;;;;;;;;5024700;28;20342;-71
2023/09/29 13:05:31;;;;;;;10.27;2.78;;;;;;;;;;5001372;28;20017;-71
2023/09/29 13:07:56;;;;;;;11.02;2.85;;;;;;;;;;5017302;28;20105;-72
2023/09/29 13:10:22;;;;;;;11.57;2.80;;;;;;;;;;5027121;28;20099;-69
2023/09/29 13:12:54;;;;;;;8.27;2.53;;;;;;;;;;5022562;28;20340;-69
2023/09/29 13:15:20;;;;;;;13.68;2.70;;;;;;;;;;5027428;28;20117;-70
2023/09/29 13:17:45;;;;;;;6.57;2.60;;;;;;;;;;5019999;28;20226;-70
2023/09/29 13:20:12;;;;;;;6.20;2.17;;;;;;;;;;5023588;28;20025;-71
2023/09/29 13:22:38;;;;;;;11.32;2.47;;;;;;;;;;5029379;28;20133;-70
2023/09/29 13:25:04;;;;;;;10.23;3.22;;;;;;;;;;5021800;28;20507;-71
2023/09/29 13:27:32;;;;;;;8.43;2.28;;;;;;;;;;5023627;28;20094;-72
2023/09/29 13:29:57;;;;;;;11.13;2.80;;;;;;;;;;5019390;28;20069;-72
2023/09/29 13:32:22;;;;;;;9.60;2.30;;;;;;;;;;5026506;28;20026;-72
2023/09/29 13:34:47;;;;;;;12.52;2.88;;;;;;;;;;5027600;28;20025;-72
2023/09/29 13:37:18;;;;;;;8.30;2.63;;;;;;;;;;5022525;28;20013;-71
2023/09/29 13:39:43;;;;;;;7.78;2.30;;;;;;;;;;5026944;28;20345;-70
2023/09/29 13:42:09;;;;;;;6.95;2.33;;;;;;;;;;5026889;28;20018;-71
2023/09/29 13:44:34;;;;;;;6.75;2.58;;;;;;;;;;5028045;28;20014;-72
2023/09/29 13:46:59;;;;;;;7.17;2.40;;;;;;;;;;5026831;28;20420;-74
2023/09/29 13:49:25;;;;;;;11.80;2.53;;;;;;;;;;5008330;28;20596;-71
2023/09/29 13:51:50;;;;;;;7.10;2.30;;;;;;;;;;5027584;28;20278;-71
2023/09/29 13:54:16;;;;;;;10.35;2.55;;;;;;;;;;5026062;28;20100;-72
2023/09/29 13:56:41;;;;;;;10.55;3.30;;;;;;;;;;5020208;28;20013;-72
2023/09/29 13:59:06;;;;;;;9.50;2.30;;;;;;;;;;5021180;28;20057;-71
2023/09/29 14:01:32;;;;;;;10.48;2.58;;;;;;;;;;5015809;28;20647;-71
2023/09/29 14:03:59;;;;;;;6.35;2.72;;;;;;;;;;5025728;28;20056;-69
2023/09/29 14:06:25;;;;;;;10.13;2.35;;;;;;;;;;5021774;28;20052;-69
2023/09/29 14:08:50;;;;;;;6.10;2.30;;;;;;;;;;5009498;28;20385;-73
2023/09/29 14:11:15;;;;;;;6.20;2.25;;;;;;;;;;5021876;28;20096;-67
2023/09/29 14:13:40;;;;;;;7.07;2.20;;;;;;;;;;5019541;28;20084;-71
2023/09/29 14:16:05;;;;;;;15.77;2.83;;;;;;;;;;5025476;28;20586;-71
2023/09/29 14:18:31;;;;;;;13.15;2.75;;;;;;;;;;5026790;28;20254;-70
2023/09/29 14:20:57;;;;;;;14.15;2.67;;;;;;;;;;5018169;28;20080;-68
2023/09/29 14:23:22;;;;;;;4.97;2.50;;;;;;;;;;5028101;28;20032;-71
2023/09/29 14:25:47;;;;;;;9.60;2.03;;;;;;;;;;5026437;28;20017;-71
2023/09/29 14:28:13;;;;;;;7.73;2.77;;;;;;;;;;5025343;28;20025;-71
2023/09/29 14:30:38;;;;;;;9.73;2.70;;;;;;;;;;5025401;28;20274;-70
2023/09/29 14:33:04;;;;;;;10.37;3.00;;;;;;;;;;5020763;28;20057;-68
2023/09/29 14:35:30;;;;;;;5.97;2.80;;;;;;;;;;5024158;28;20769;-70
2023/09/29 14:37:56;;;;;;;7.88;3.65;;;;;;;;;;5022632;28;20407;-71
2023/09/29 14:40:21;;;;;;;6.65;2.97;;;;;;;;;;5025987;28;20108;-70
2023/09/29 14:42:47;;;;;;;8.50;3.00;;;;;;;;;;5005979;28;20503;-67
2023/09/29 14:45:12;;;;;;;14.82;3.35;;;;;;;;;;5020001;28;20034;-70
2023/09/29 14:47:38;;;;;;;9.25;3.17;;;;;;;;;;5019645;28;20095;-72
2023/09/29 14:50:03;;;;;;;10.82;2.88;;;;;;;;;;5023281;28;20104;-69
2023/09/29 14:52:28;;;;;;;9.70;3.22;;;;;;;;;;5018266;28;20170;-72
2023/09/29 14:54:54;;;;;;;12.38;2.85;;;;;;;;;;5024285;28;20142;-70
2023/09/29 14:57:20;;;;;;;7.53;3.67;;;;;;;;;;5025862;28;20026;-71
2023/09/29 14:59:45;;;;;;;6.47;2.75;;;;;;;;;;5026544;28;20363;-71
2023/09/29 15:02:10;;;;;;;6.28;2.53;;;;;;;;;;5022904;28;20163;-69
2023/09/29 15:04:37;;;;;;;19.45;3.30;;;;;;;;;;5023817;28;20017;-68
2023/09/29 15:07:02;;;;;;;8.40;2.80;;;;;;;;;;5026670;28;20084;-68
2023/09/29 15:09:29;;;;;;;13.35;3.33;;;;;;;;;;5020528;28;20148;-68
2023/09/29 15:11:55;;;;;;;10.15;3.20;;;;;;;;;;5023592;28;20108;-69
2023/09/29 15:14:20;;;;;;;8.47;2.90;;;;;;;;;;5022248;28;20578;-68
2023/09/29 15:16:45;;;;;;;8.80;2.83;;;;;;;;;;5022116;28;20320;-67
2023/09/29 15:19:14;;;;;;;10.15;3.03;;;;;;;;;;5022366;28;20456;-70
2023/09/29 15:21:40;;;;;;;5.03;2.67;;;;;;;;;;5026130;28;20025;-70
2023/09/29 15:24:05;;;;;;;7.80;2.83;;;;;;;;;;5030175;28;20125;-70
2023/09/29 15:26:31;;;;;;;10.07;2.90;;;;;;;;;;5029289;28;20009;-73
2023/09/29 15:28:56;;;;;;;13.43;3.40;;;;;;;;;;5026834;28;20039;-69
2023/09/29 15:31:22;;;;;;;13.40;3.20;;;;;;;;;;5026293;28;20048;-72
2023/09/29 15:33:47;;;;;;;8.50;2.80;;;;;;;;;;5027366;28;20026;-70